createdAt,value
2022-10-09T00:01:14.756Z,5.90
2022-10-09T00:03:44.023Z,5.90
2022-10-09T00:06:13.308Z,5.90
2022-10-09T00:08:40.660Z,5.80
2022-10-09T00:11:09.881Z,5.80
2022-10-09T00:13:37.714Z,5.80
2022-10-09T00:16:07.223Z,5.80
2022-10-09T00:18:34.984Z,5.80
2022-10-09T00:21:03.120Z,5.70
2022-10-09T00:23:30.106Z,5.70
2022-10-09T00:25:59.156Z,5.70
2022-10-09T00:28:28.335Z,5.70
2022-10-09T00:30:56.913Z,5.60
2022-10-09T00:33:24.667Z,5.60
2022-10-09T00:35:51.668Z,5.60
2022-10-09T00:38:18.710Z,5.60
2022-10-09T00:40:46.635Z,5.50
2022-10-09T00:43:19.948Z,5.50
2022-10-09T00:45:55.800Z,5.50
2022-10-09T00:48:23.544Z,5.50
2022-10-09T00:50:56.385Z,5.40
2022-10-09T00:53:25.236Z,5.40
2022-10-09T00:55:52.700Z,5.40
2022-10-09T00:58:20.127Z,5.40
2022-10-09T01:00:48.068Z,5.30
2022-10-09T01:03:15.111Z,5.30
2022-10-09T01:06:09.739Z,5.30
2022-10-09T01:09:01.079Z,5.30
2022-10-09T01:11:49.045Z,5.30
2022-10-09T01:14:32.262Z,5.20
2022-10-09T01:17:31.289Z,5.20
2022-10-09T01:20:25.220Z,5.20
2022-10-09T01:22:52.018Z,5.10
2022-10-09T01:25:43.784Z,5.10
2022-10-09T01:28:11.522Z,5.10
2022-10-09T01:30:38.988Z,5.10
2022-10-09T01:33:06.879Z,5.10
2022-10-09T01:35:33.854Z,5.10
2022-10-09T01:38:02.481Z,5.10
2022-10-09T01:40:29.822Z,5.00
2022-10-09T01:42:58.264Z,5.00
2022-10-09T01:45:25.329Z,5.00
2022-10-09T01:47:52.196Z,5.00
2022-10-09T01:50:25.070Z,5.00
2022-10-09T01:52:55.532Z,4.90
2022-10-09T01:55:50.408Z,4.90
2022-10-09T01:58:32.263Z,4.90
2022-10-09T02:01:21.109Z,4.80
2022-10-09T02:03:51.000Z,4.80
2022-10-09T02:06:19.446Z,4.80
2022-10-09T02:08:50.464Z,4.70
2022-10-09T02:11:19.730Z,4.70
2022-10-09T02:13:49.152Z,4.70
2022-10-09T02:16:23.254Z,4.70
2022-10-09T02:18:58.174Z,4.70
2022-10-09T02:21:33.309Z,4.70
2022-10-09T02:24:03.635Z,4.70
2022-10-09T02:26:30.468Z,4.60
2022-10-09T02:28:58.531Z,4.60
2022-10-09T02:31:32.033Z,4.60
2022-10-09T02:34:04.427Z,4.60
2022-10-09T02:36:31.680Z,4.50
2022-10-09T02:38:59.215Z,4.50
2022-10-09T02:41:31.211Z,4.50
2022-10-09T02:43:58.484Z,4.50
2022-10-09T02:46:25.435Z,4.40
2022-10-09T02:48:52.297Z,4.40
2022-10-09T02:51:21.816Z,4.40
2022-10-09T02:53:48.766Z,4.40
2022-10-09T02:56:15.580Z,4.40
2022-10-09T02:58:42.416Z,4.40
2022-10-09T03:01:11.573Z,4.40
2022-10-09T03:03:38.618Z,4.30
2022-10-09T03:06:11.328Z,4.30
2022-10-09T03:08:41.292Z,4.30
2022-10-09T03:11:09.128Z,4.30
2022-10-09T03:13:36.749Z,4.30
2022-10-09T03:16:05.691Z,4.20
2022-10-09T03:18:32.956Z,4.30
2022-10-09T03:21:01.097Z,4.30
2022-10-09T03:23:27.954Z,4.20
2022-10-09T03:26:05.731Z,4.20
2022-10-09T03:28:36.232Z,4.20
2022-10-09T03:31:04.374Z,4.20
2022-10-09T03:33:33.294Z,4.20
2022-10-09T03:36:00.271Z,4.20
2022-10-09T03:38:27.515Z,4.20
2022-10-09T03:40:59.224Z,4.20
2022-10-09T03:43:26.478Z,4.10
2022-10-09T03:45:53.272Z,4.20
2022-10-09T03:48:20.394Z,4.10
2022-10-09T03:50:47.603Z,4.10
2022-10-09T03:53:15.442Z,4.10
2022-10-09T03:55:42.652Z,4.10
2022-10-09T03:58:10.364Z,4.10
2022-10-09T04:00:37.496Z,4.10
2022-10-09T04:03:04.540Z,4.10
2022-10-09T04:05:35.276Z,4.10
2022-10-09T04:08:02.187Z,4.00
2022-10-09T04:10:31.244Z,4.00
2022-10-09T04:12:58.205Z,4.00
2022-10-09T04:15:24.990Z,4.00
2022-10-09T04:17:51.820Z,4.00
2022-10-09T04:20:44.140Z,4.00
2022-10-09T04:23:10.955Z,4.00
2022-10-09T04:25:37.825Z,4.00
2022-10-09T04:28:04.658Z,4.00
2022-10-09T04:30:32.746Z,4.00
2022-10-09T04:32:59.569Z,4.00
2022-10-09T04:35:26.409Z,4.00
2022-10-09T04:37:53.433Z,4.00
2022-10-09T04:40:21.491Z,4.00
2022-10-09T04:42:48.689Z,4.00
2022-10-09T04:45:15.744Z,4.00
2022-10-09T04:47:42.576Z,4.00
2022-10-09T04:50:10.795Z,3.90
2022-10-09T04:52:37.583Z,3.90
2022-10-09T04:55:04.856Z,3.90
2022-10-09T04:57:31.659Z,3.90
2022-10-09T04:59:58.650Z,3.90
2022-10-09T05:02:25.550Z,3.80
2022-10-09T05:04:52.375Z,3.80
2022-10-09T05:07:19.217Z,3.80
2022-10-09T05:09:46.360Z,3.90
2022-10-09T05:12:13.148Z,3.80
2022-10-09T05:14:40.036Z,3.80
2022-10-09T05:17:14.206Z,3.90
2022-10-09T05:19:42.926Z,3.90
2022-10-09T05:22:09.752Z,3.90
2022-10-09T05:24:36.625Z,3.90
2022-10-09T05:27:03.513Z,3.90
2022-10-09T05:29:30.362Z,3.90
2022-10-09T05:31:57.338Z,3.90
2022-10-09T05:34:24.375Z,3.90
2022-10-09T05:36:51.377Z,3.90
2022-10-09T05:39:18.220Z,3.90
2022-10-09T05:41:45.148Z,3.90
2022-10-09T05:44:12.043Z,3.90
2022-10-09T05:46:38.868Z,3.90
2022-10-09T05:49:06.272Z,4.00
2022-10-09T05:51:37.334Z,4.00
2022-10-09T05:54:06.098Z,4.00
2022-10-09T05:56:37.770Z,3.90
2022-10-09T05:59:05.439Z,4.00
2022-10-09T06:01:36.262Z,4.00
2022-10-09T06:04:04.083Z,3.90
2022-10-09T06:06:33.186Z,4.00
2022-10-09T06:09:00.415Z,4.00
2022-10-09T06:11:32.520Z,3.90
2022-10-09T06:14:01.601Z,3.90
2022-10-09T06:16:34.213Z,3.90
2022-10-09T06:19:01.686Z,3.90
2022-10-09T06:21:29.276Z,3.90
2022-10-09T06:23:58.867Z,3.90
2022-10-09T06:26:30.700Z,3.90
2022-10-09T06:28:58.943Z,4.00
2022-10-09T06:31:31.523Z,4.00
2022-10-09T06:34:03.366Z,4.00
2022-10-09T06:36:33.397Z,4.00
2022-10-09T06:39:02.252Z,4.00
2022-10-09T06:41:29.920Z,4.00
2022-10-09T06:44:02.061Z,4.10
2022-10-09T06:46:32.950Z,4.10
2022-10-09T06:49:00.872Z,4.10
2022-10-09T06:51:29.111Z,4.20
2022-10-09T06:53:58.591Z,4.20
2022-10-09T06:56:27.713Z,4.30
2022-10-09T06:58:54.887Z,4.30
2022-10-09T07:01:26.735Z,4.40
2022-10-09T07:03:59.063Z,4.50
2022-10-09T07:06:31.338Z,4.60
2022-10-09T07:09:01.380Z,4.70
2022-10-09T07:11:33.178Z,4.90
2022-10-09T07:14:02.068Z,5.10
2022-10-09T07:16:37.031Z,5.30
2022-10-09T07:19:07.534Z,5.50
2022-10-09T07:21:35.433Z,5.70
2022-10-09T07:24:03.018Z,5.90
2022-10-09T07:26:32.464Z,6.10
2022-10-09T07:28:59.458Z,6.20
2022-10-09T07:31:27.718Z,6.40
2022-10-09T07:33:56.810Z,6.50
2022-10-09T07:36:24.327Z,6.70
2022-10-09T07:38:57.483Z,6.90
2022-10-09T07:41:28.203Z,7.10
2022-10-09T07:43:55.787Z,7.40
2022-10-09T07:46:24.700Z,7.70
2022-10-09T07:48:52.247Z,8.00
2022-10-09T07:51:26.164Z,8.30
2022-10-09T07:53:53.656Z,8.60
2022-10-09T07:56:22.505Z,8.80
2022-10-09T07:58:55.026Z,9.10
2022-10-09T08:01:23.490Z,9.30
2022-10-09T08:03:50.666Z,9.50
2022-10-09T08:06:18.396Z,9.70
2022-10-09T08:08:45.752Z,9.90
2022-10-09T08:11:16.054Z,10.10
2022-10-09T08:13:43.942Z,10.30
2022-10-09T08:16:11.329Z,10.50
2022-10-09T08:18:38.263Z,10.60
2022-10-09T08:21:09.583Z,10.80
2022-10-09T08:23:36.590Z,11.00
2022-10-09T08:26:04.496Z,11.20
2022-10-09T08:28:31.775Z,11.30
2022-10-09T08:30:59.961Z,11.50
2022-10-09T08:33:26.972Z,11.60
2022-10-09T08:35:54.378Z,11.80
2022-10-09T08:38:45.459Z,11.90
2022-10-09T08:41:24.787Z,12.10
2022-10-09T08:44:09.683Z,12.20
2022-10-09T08:47:11.706Z,12.40
2022-10-09T08:49:57.930Z,12.50
2022-10-09T08:52:50.051Z,12.70
2022-10-09T08:55:25.105Z,12.90
2022-10-09T08:57:55.512Z,13.00
2022-10-09T09:00:26.147Z,13.10
2022-10-09T09:03:03.419Z,13.30
2022-10-09T09:05:39.368Z,13.40
2022-10-09T09:08:31.544Z,13.50
2022-10-09T09:11:19.362Z,13.60
2022-10-09T09:14:00.197Z,13.80
2022-10-09T09:16:48.068Z,13.90
2022-10-09T09:19:42.660Z,14.00
2022-10-09T09:22:15.095Z,14.20
2022-10-09T09:24:58.740Z,14.30
2022-10-09T09:27:36.824Z,14.40
2022-10-09T09:30:12.571Z,14.50
2022-10-09T09:33:14.548Z,14.60
2022-10-09T09:35:50.152Z,14.80
2022-10-09T09:38:17.672Z,15.00
2022-10-09T09:40:47.253Z,15.20
2022-10-09T09:43:23.611Z,15.50
2022-10-09T09:45:58.756Z,15.80
2022-10-09T09:48:40.708Z,16.20
2022-10-09T09:51:27.935Z,16.60
2022-10-09T09:54:01.221Z,17.20
2022-10-09T09:56:59.745Z,17.80
2022-10-09T09:59:33.160Z,18.40
2022-10-09T10:02:06.141Z,19.20
2022-10-09T10:04:33.051Z,19.80
2022-10-09T10:06:59.964Z,20.40
2022-10-09T10:09:27.171Z,20.90
2022-10-09T10:12:01.399Z,21.20
2022-10-09T10:14:28.940Z,21.40
2022-10-09T10:16:57.920Z,21.70
2022-10-09T10:19:26.579Z,22.30
2022-10-09T10:21:56.291Z,22.90
2022-10-09T10:24:32.743Z,22.90
2022-10-09T10:27:08.292Z,23.10
2022-10-09T10:29:59.044Z,23.70
2022-10-09T10:32:38.563Z,24.20
2022-10-09T10:35:05.615Z,24.70
2022-10-09T10:38:05.466Z,24.90
2022-10-09T10:40:37.850Z,24.90
2022-10-09T10:43:10.757Z,23.80
2022-10-09T10:45:58.273Z,22.80
2022-10-09T10:48:33.234Z,21.90
2022-10-09T10:51:26.452Z,22.20
2022-10-09T10:54:12.199Z,22.80
2022-10-09T10:56:45.043Z,23.40
2022-10-09T10:59:33.024Z,23.50
2022-10-09T11:02:21.536Z,23.00
2022-10-09T11:05:00.283Z,23.50
2022-10-09T11:08:10.867Z,24.60
2022-10-09T11:10:47.889Z,25.70
2022-10-09T11:13:20.821Z,26.70
2022-10-09T11:16:15.705Z,27.20
2022-10-09T11:19:09.196Z,27.60
2022-10-09T11:21:59.228Z,27.90
2022-10-09T11:24:57.150Z,28.30
2022-10-09T11:27:29.694Z,28.50
2022-10-09T11:30:02.428Z,28.80
2022-10-09T11:32:44.717Z,29.30
2022-10-09T11:35:23.356Z,29.50
2022-10-09T11:38:02.732Z,29.50
2022-10-09T11:40:34.826Z,29.50
2022-10-09T11:43:10.919Z,29.60
2022-10-09T11:46:09.482Z,29.50
2022-10-09T11:48:44.979Z,29.40
2022-10-09T11:51:52.578Z,29.30
2022-10-09T11:54:22.763Z,29.50
2022-10-09T11:57:00.884Z,29.70
2022-10-09T11:59:31.323Z,30.10
2022-10-09T12:02:00.269Z,30.20
2022-10-09T12:04:53.537Z,30.10
2022-10-09T12:07:27.873Z,30.20
2022-10-09T12:10:27.227Z,30.30
2022-10-09T12:13:00.663Z,30.20
2022-10-09T12:15:38.853Z,30.40
2022-10-09T12:18:37.622Z,30.20
2022-10-09T12:21:09.469Z,29.90
2022-10-09T12:23:39.491Z,29.60
2022-10-09T12:26:10.748Z,29.70
2022-10-09T12:28:45.081Z,29.90
2022-10-09T12:31:39.985Z,30.10
2022-10-09T12:34:23.062Z,30.40
2022-10-09T12:36:50.067Z,30.40
2022-10-09T12:39:22.914Z,30.60
2022-10-09T12:42:16.356Z,30.70
2022-10-09T12:44:44.545Z,30.90
2022-10-09T12:47:30.369Z,31.20
2022-10-09T12:50:16.480Z,31.20
2022-10-09T12:52:51.392Z,31.00
2022-10-09T12:55:40.394Z,30.90
2022-10-09T12:58:19.959Z,31.00
2022-10-09T13:00:50.803Z,31.20
2022-10-09T13:03:37.098Z,31.20
2022-10-09T13:06:15.296Z,31.10
2022-10-09T13:08:43.019Z,31.10
2022-10-09T13:11:24.892Z,31.30
2022-10-09T13:13:53.666Z,31.40
2022-10-09T13:16:23.261Z,31.40
2022-10-09T13:19:01.549Z,31.50
2022-10-09T13:21:34.298Z,31.60
2022-10-09T13:24:13.321Z,32.00
2022-10-09T13:26:43.425Z,32.30
2022-10-09T13:29:13.301Z,32.20
2022-10-09T13:31:43.728Z,31.90
2022-10-09T13:34:13.629Z,31.70
2022-10-09T13:36:41.075Z,31.60
2022-10-09T13:39:14.917Z,31.40
2022-10-09T13:41:44.590Z,31.00
2022-10-09T13:44:11.472Z,30.50
2022-10-09T13:46:38.336Z,30.30
2022-10-09T13:49:05.158Z,30.40
2022-10-09T13:51:33.190Z,30.30
2022-10-09T13:54:00.071Z,29.70
2022-10-09T13:56:27.861Z,28.90
2022-10-09T13:58:54.758Z,28.70
2022-10-09T14:01:23.033Z,28.60
2022-10-09T14:03:49.917Z,28.70
2022-10-09T14:06:17.062Z,28.30
2022-10-09T14:08:43.948Z,27.40
2022-10-09T14:11:11.828Z,26.50
2022-10-09T14:13:38.718Z,25.50
2022-10-09T14:16:06.846Z,24.40
2022-10-09T14:18:33.974Z,23.40
2022-10-09T14:21:13.923Z,22.60
2022-10-09T14:23:41.882Z,22.00
2022-10-09T14:26:08.811Z,21.50
2022-10-09T14:28:36.017Z,21.20
2022-10-09T14:31:07.565Z,20.80
2022-10-09T14:33:34.624Z,20.50
2022-10-09T14:36:20.092Z,20.10
2022-10-09T14:38:49.208Z,19.90
2022-10-09T14:41:20.098Z,19.60
2022-10-09T14:43:48.643Z,19.50
2022-10-09T14:46:17.336Z,19.30
2022-10-09T14:48:45.911Z,19.10
2022-10-09T14:51:19.117Z,19.00
2022-10-09T14:53:46.828Z,18.90
2022-10-09T14:56:16.392Z,18.80
2022-10-09T14:58:43.634Z,18.90
2022-10-09T15:01:20.181Z,18.90
2022-10-09T15:03:48.287Z,18.90
2022-10-09T15:06:23.792Z,18.90
2022-10-09T15:08:54.086Z,18.70
2022-10-09T15:11:25.742Z,18.60
2022-10-09T15:13:53.182Z,18.50
2022-10-09T15:16:20.780Z,18.30
2022-10-09T15:18:50.024Z,18.30
2022-10-09T15:21:28.184Z,18.30
2022-10-09T15:23:57.862Z,18.30
2022-10-09T15:26:26.458Z,18.30
2022-10-09T15:28:53.720Z,18.30
2022-10-09T15:31:47.188Z,18.40
2022-10-09T15:34:18.462Z,19.00
2022-10-09T15:36:46.104Z,20.20
2022-10-09T15:39:13.910Z,21.60
2022-10-09T15:42:20.496Z,22.80
2022-10-09T15:44:47.375Z,23.40
2022-10-09T15:47:16.796Z,23.70
2022-10-09T15:49:50.129Z,23.90
2022-10-09T15:52:20.552Z,23.80
2022-10-09T15:54:47.365Z,23.90
2022-10-09T15:57:14.417Z,23.90
2022-10-09T15:59:42.432Z,24.00
2022-10-09T16:02:10.858Z,23.80
2022-10-09T16:04:38.783Z,23.10
2022-10-09T16:07:05.777Z,22.20
2022-10-09T16:09:53.078Z,21.30
2022-10-09T16:12:20.017Z,20.50
2022-10-09T16:14:46.957Z,19.90
2022-10-09T16:17:13.848Z,19.50
2022-10-09T16:19:40.722Z,19.00
2022-10-09T16:22:07.642Z,18.40
2022-10-09T16:24:34.508Z,17.90
2022-10-09T16:27:04.576Z,17.40
2022-10-09T16:29:31.839Z,17.10
2022-10-09T16:31:58.731Z,16.70
2022-10-09T16:34:28.655Z,16.50
2022-10-09T16:36:57.285Z,16.20
2022-10-09T16:39:24.113Z,16.00
2022-10-09T16:41:52.206Z,15.80
2022-10-09T16:44:19.071Z,15.60
2022-10-09T16:46:46.098Z,15.60
2022-10-09T16:49:21.316Z,15.40
2022-10-09T16:52:34.788Z,15.40
2022-10-09T16:55:01.847Z,15.30
2022-10-09T16:57:28.815Z,15.20
2022-10-09T16:59:58.398Z,15.00
2022-10-09T17:02:25.742Z,14.90
2022-10-09T17:04:52.595Z,14.80
2022-10-09T17:07:19.608Z,14.70
2022-10-09T17:09:50.471Z,14.60
2022-10-09T17:12:17.570Z,14.50
2022-10-09T17:14:44.913Z,14.40
2022-10-09T17:17:12.386Z,14.20
2022-10-09T17:19:39.762Z,14.10
2022-10-09T17:22:06.749Z,14.00
2022-10-09T17:24:34.025Z,13.90
2022-10-09T17:27:01.034Z,13.80
2022-10-09T17:29:27.966Z,13.70
2022-10-09T17:31:54.987Z,13.60
2022-10-09T17:34:21.971Z,13.50
2022-10-09T17:36:48.893Z,13.40
2022-10-09T17:39:17.409Z,13.30
2022-10-09T17:42:21.935Z,13.20
2022-10-09T17:44:48.810Z,13.20
2022-10-09T17:47:15.740Z,13.10
2022-10-09T17:49:42.683Z,13.00
2022-10-09T17:52:09.555Z,12.90
2022-10-09T17:54:37.633Z,12.90
2022-10-09T17:57:06.997Z,12.80
2022-10-09T17:59:36.601Z,12.70
2022-10-09T18:02:03.745Z,12.60
2022-10-09T18:04:30.765Z,12.60
2022-10-09T18:06:57.684Z,12.50
2022-10-09T18:09:27.192Z,12.50
2022-10-09T18:11:54.050Z,12.40
2022-10-09T18:14:21.233Z,12.30
2022-10-09T18:16:48.295Z,12.20
2022-10-09T18:19:18.562Z,12.10
2022-10-09T18:22:11.819Z,12.00
2022-10-09T18:24:38.978Z,11.90
2022-10-09T18:27:05.933Z,11.80
2022-10-09T18:29:32.783Z,11.70
2022-10-09T18:31:59.628Z,11.60
2022-10-09T18:34:26.606Z,11.50
2022-10-09T18:36:54.679Z,11.40
2022-10-09T18:39:21.616Z,11.30
2022-10-09T18:41:48.860Z,11.30
2022-10-09T18:44:18.919Z,11.20
2022-10-09T18:46:50.002Z,11.10
2022-10-09T18:49:19.568Z,11.10
2022-10-09T18:51:47.419Z,11.00
2022-10-09T18:54:18.179Z,11.00
2022-10-09T18:56:46.402Z,11.00
2022-10-09T18:59:16.544Z,10.90
2022-10-09T19:02:07.471Z,10.90
2022-10-09T19:04:34.347Z,10.80
2022-10-09T19:07:01.627Z,10.80
2022-10-09T19:09:28.552Z,10.70
2022-10-09T19:11:55.689Z,10.70
2022-10-09T19:14:22.854Z,10.60
2022-10-09T19:16:49.706Z,10.60
2022-10-09T19:19:16.551Z,10.60
2022-10-09T19:22:02.375Z,10.50
2022-10-09T19:24:34.107Z,10.40
2022-10-09T19:27:01.825Z,10.40
2022-10-09T19:29:30.944Z,10.30
2022-10-09T19:31:57.800Z,10.30
2022-10-09T19:34:25.180Z,10.20
2022-10-09T19:36:52.556Z,10.10
2022-10-09T19:39:20.187Z,10.10
2022-10-09T19:41:49.423Z,10.00
2022-10-09T19:44:16.418Z,10.00
2022-10-09T19:46:43.469Z,9.90
2022-10-09T19:49:10.391Z,9.90
2022-10-09T19:51:37.993Z,9.90
2022-10-09T19:54:10.444Z,9.90
2022-10-09T19:56:38.704Z,9.90
2022-10-09T19:59:07.954Z,9.80
2022-10-09T20:01:37.490Z,9.80
2022-10-09T20:04:07.849Z,9.80
2022-10-09T20:06:38.285Z,9.80
2022-10-09T20:09:06.399Z,9.80
2022-10-09T20:11:36.431Z,9.90
2022-10-09T20:14:03.976Z,9.90
2022-10-09T20:16:31.975Z,9.90
2022-10-09T20:19:00.123Z,9.90
2022-10-09T20:21:29.683Z,9.90
2022-10-09T20:23:58.472Z,9.90
2022-10-09T20:26:25.562Z,9.90
2022-10-09T20:28:55.756Z,9.90
2022-10-09T20:31:26.580Z,9.90
2022-10-09T20:33:55.327Z,10.00
2022-10-09T20:36:35.299Z,10.00
2022-10-09T20:39:06.492Z,10.00
2022-10-09T20:41:34.376Z,10.00
2022-10-09T20:44:05.902Z,9.90
2022-10-09T20:46:35.664Z,9.90
2022-10-09T20:49:05.262Z,9.80
2022-10-09T20:51:35.308Z,9.80
2022-10-09T20:54:02.176Z,9.80
2022-10-09T20:56:30.820Z,9.70
2022-10-09T20:58:59.081Z,9.80
2022-10-09T21:01:28.719Z,9.80
2022-10-09T21:03:57.011Z,9.80
2022-10-09T21:06:23.876Z,9.90
2022-10-09T21:08:51.466Z,9.90
2022-10-09T21:11:56.362Z,9.90
2022-10-09T21:14:23.217Z,9.90
2022-10-09T21:16:50.469Z,9.90
2022-10-09T21:19:17.941Z,9.90
2022-10-09T21:21:50.070Z,9.90
2022-10-09T21:24:17.954Z,9.80
2022-10-09T21:26:47.016Z,9.80
2022-10-09T21:29:14.349Z,9.80
2022-10-09T21:32:01.426Z,9.80
2022-10-09T21:34:28.281Z,9.70
2022-10-09T21:37:19.816Z,9.60
2022-10-09T21:39:43.750Z,9.60
2022-10-09T21:42:10.640Z,9.50
2022-10-09T21:44:37.530Z,9.40
2022-10-09T21:47:04.499Z,9.40
2022-10-09T21:49:31.456Z,9.40
2022-10-09T21:51:58.285Z,9.40
2022-10-09T21:54:26.285Z,9.40
2022-10-09T21:56:53.163Z,9.40
2022-10-09T21:59:20.048Z,9.30
2022-10-09T22:01:48.129Z,9.30
2022-10-09T22:04:15.035Z,9.30
2022-10-09T22:06:43.249Z,9.30
2022-10-09T22:09:11.257Z,9.40
2022-10-09T22:11:38.362Z,9.40
2022-10-09T22:14:05.892Z,9.30
2022-10-09T22:16:32.791Z,9.40
2022-10-09T22:19:00.361Z,9.40
2022-10-09T22:21:48.415Z,9.40
2022-10-09T22:24:15.439Z,9.40
2022-10-09T22:26:42.248Z,9.40
2022-10-09T22:29:09.110Z,9.40
2022-10-09T22:31:36.027Z,9.40
2022-10-09T22:34:03.697Z,9.40
2022-10-09T22:36:32.864Z,9.40
2022-10-09T22:39:02.521Z,9.40
2022-10-09T22:41:48.219Z,9.40
2022-10-09T22:44:15.074Z,9.40
2022-10-09T22:46:43.984Z,9.40
2022-10-09T22:49:13.267Z,9.50
2022-10-09T22:51:40.875Z,9.50
2022-10-09T22:54:07.782Z,9.50
2022-10-09T22:56:37.568Z,9.50
2022-10-09T22:59:05.722Z,9.50
2022-10-09T23:02:03.772Z,9.50
2022-10-09T23:04:30.606Z,9.60
2022-10-09T23:06:59.665Z,9.60
2022-10-09T23:09:29.423Z,9.60
2022-10-09T23:11:57.097Z,9.60
2022-10-09T23:14:24.960Z,9.70
2022-10-09T23:16:51.944Z,9.70
2022-10-09T23:19:18.880Z,9.70
2022-10-09T23:21:47.850Z,9.70
2022-10-09T23:24:17.393Z,9.80
2022-10-09T23:26:45.946Z,9.80
2022-10-09T23:29:17.376Z,9.80
2022-10-09T23:31:45.664Z,9.80
2022-10-09T23:34:12.522Z,9.90
2022-10-09T23:36:39.542Z,9.90
2022-10-09T23:39:07.144Z,9.90
2022-10-09T23:41:35.589Z,10.00
2022-10-09T23:44:02.569Z,10.00
2022-10-09T23:46:32.941Z,10.10
2022-10-09T23:49:00.321Z,10.20
2022-10-09T23:51:30.168Z,10.20
2022-10-09T23:53:57.960Z,10.30
2022-10-09T23:56:28.844Z,10.30
2022-10-09T23:58:56.590Z,10.30
